createdAt,value
2023-04-09T00:01:56.693Z,99510.52
2023-04-09T00:05:11.465Z,99517.25
2023-04-09T00:08:24.080Z,99523.13
2023-04-09T00:11:36.550Z,99523.02
2023-04-09T00:14:48.626Z,99526.81
2023-04-09T00:18:00.582Z,99521.74
2023-04-09T00:21:12.898Z,99519.68
2023-04-09T00:24:24.900Z,99518.67
2023-04-09T00:27:36.863Z,99524.94
2023-04-09T00:30:48.876Z,99520.54
2023-04-09T00:34:01.327Z,99530.20
2023-04-09T00:37:13.633Z,99524.78
2023-04-09T00:40:25.535Z,99521.14
2023-04-09T00:43:37.482Z,99521.80
2023-04-09T00:46:49.603Z,99514.58
2023-04-09T00:50:02.102Z,99512.03
2023-04-09T00:53:15.641Z,99506.78
2023-04-09T00:56:29.945Z,99501.52
2023-04-09T00:59:42.166Z,99506.88
2023-04-09T01:02:54.834Z,99505.66
2023-04-09T01:06:15.111Z,99509.81
2023-04-09T01:09:33.287Z,99508.86
2023-04-09T01:12:51.602Z,99508.86
2023-04-09T01:16:06.567Z,99489.27
2023-04-09T01:19:26.381Z,99502.94
2023-04-09T01:22:54.179Z,99503.95
2023-04-09T01:26:15.447Z,99504.14
2023-04-09T01:29:31.727Z,99493.72
2023-04-09T01:32:47.443Z,99501.67
2023-04-09T01:36:01.104Z,99494.73
2023-04-09T01:39:14.647Z,99485.42
2023-04-09T01:42:27.676Z,99497.01
2023-04-09T01:45:41.077Z,99500.50
2023-04-09T01:48:54.244Z,99507.63
2023-04-09T01:52:06.740Z,99510.52
2023-04-09T01:55:19.087Z,99513.41
2023-04-09T01:58:34.418Z,99515.27
2023-04-09T02:01:51.582Z,99514.61
2023-04-09T02:05:06.630Z,99518.51
2023-04-09T02:08:24.407Z,99516.06
2023-04-09T02:11:39.262Z,99520.56
2023-04-09T02:14:56.182Z,99522.63
2023-04-09T02:18:08.423Z,99524.30
2023-04-09T02:21:20.259Z,99527.50
2023-04-09T02:24:32.311Z,99524.72
2023-04-09T02:27:44.402Z,99527.92
2023-04-09T02:30:56.813Z,99527.00
2023-04-09T02:34:08.787Z,99520.22
2023-04-09T02:37:20.992Z,99519.37
2023-04-09T02:40:33.277Z,99518.70
2023-04-09T02:43:45.375Z,99519.45
2023-04-09T02:46:58.321Z,99513.25
2023-04-09T02:50:11.908Z,99513.09
2023-04-09T02:53:26.212Z,99513.00
2023-04-09T02:56:38.333Z,99516.29
2023-04-09T02:59:50.929Z,99518.86
2023-04-09T03:03:03.364Z,99516.29
2023-04-09T03:06:15.484Z,99520.03
2023-04-09T03:09:27.597Z,99515.47
2023-04-09T03:12:39.649Z,99520.54
2023-04-09T03:15:53.654Z,99512.39
2023-04-09T03:19:05.800Z,99514.27
2023-04-09T03:22:18.083Z,99523.27
2023-04-09T03:25:31.194Z,99514.27
2023-04-09T03:28:44.182Z,99514.07
2023-04-09T03:31:56.176Z,99517.30
2023-04-09T03:35:08.524Z,99510.27
2023-04-09T03:38:21.347Z,99518.16
2023-04-09T03:41:33.503Z,99515.42
2023-04-09T03:44:47.293Z,99511.02
2023-04-09T03:48:01.317Z,99506.52
2023-04-09T03:51:17.217Z,99508.95
2023-04-09T03:54:33.283Z,99513.27
2023-04-09T03:57:45.871Z,99515.08
2023-04-09T04:01:00.373Z,99511.48
2023-04-09T04:04:14.624Z,99510.57
2023-04-09T04:07:28.912Z,99519.23
2023-04-09T04:10:42.925Z,99516.50
2023-04-09T04:13:56.009Z,99515.48
2023-04-09T04:17:08.289Z,99524.39
2023-04-09T04:20:21.233Z,99524.30
2023-04-09T04:23:39.884Z,99519.89
2023-04-09T04:26:54.045Z,99525.05
2023-04-09T04:30:06.885Z,99517.91
2023-04-09T04:33:21.062Z,99525.65
2023-04-09T04:36:34.972Z,99526.41
2023-04-09T04:39:47.762Z,99524.34
2023-04-09T04:43:01.661Z,99523.31
2023-04-09T04:46:14.418Z,99528.38
2023-04-09T04:49:26.548Z,99532.83
2023-04-09T04:52:39.044Z,99535.36
2023-04-09T04:55:51.082Z,99539.41
2023-04-09T04:59:06.386Z,99536.59
2023-04-09T05:02:20.297Z,99539.91
2023-04-09T05:05:37.514Z,99535.47
2023-04-09T05:08:49.692Z,99542.44
2023-04-09T05:12:03.192Z,99544.98
2023-04-09T05:15:16.846Z,99536.98
2023-04-09T05:18:29.045Z,99543.76
2023-04-09T05:21:41.211Z,99542.25
2023-04-09T05:24:54.061Z,99540.20
2023-04-09T05:28:06.457Z,99539.55
2023-04-09T05:31:19.190Z,99546.59
2023-04-09T05:34:33.319Z,99551.09
2023-04-09T05:37:45.779Z,99546.00
2023-04-09T05:40:59.819Z,99554.66
2023-04-09T05:44:11.955Z,99556.00
2023-04-09T05:47:24.677Z,99559.20
2023-04-09T05:50:51.451Z,99560.05
2023-04-09T05:53:53.749Z,99562.42
2023-04-09T05:57:06.394Z,99563.28
2023-04-09T06:00:22.557Z,99566.27
2023-04-09T06:03:34.999Z,99560.09
2023-04-09T06:06:47.415Z,99565.44
2023-04-09T06:10:00.962Z,99558.53
2023-04-09T06:13:13.172Z,99564.53
2023-04-09T06:16:25.306Z,99572.43
2023-04-09T06:19:37.482Z,99562.80
2023-04-09T06:22:49.418Z,99562.31
2023-04-09T06:26:01.548Z,99567.02
2023-04-09T06:29:13.568Z,99569.27
2023-04-09T06:32:25.861Z,99568.41
2023-04-09T06:35:38.237Z,99580.92
2023-04-09T06:38:50.243Z,99572.45
2023-04-09T06:42:04.742Z,99574.58
2023-04-09T06:45:19.324Z,99567.42
2023-04-09T06:48:31.548Z,99571.83
2023-04-09T06:51:43.358Z,99581.47
2023-04-09T06:54:55.404Z,99577.86
2023-04-09T06:58:07.384Z,99575.45
2023-04-09T07:01:20.432Z,99582.05
2023-04-09T07:04:32.681Z,99580.48
2023-04-09T07:07:45.087Z,99587.70
2023-04-09T07:10:57.508Z,99580.11
2023-04-09T07:14:09.633Z,99570.02
2023-04-09T07:17:21.737Z,99574.22
2023-04-09T07:20:34.533Z,99573.81
2023-04-09T07:23:46.966Z,99570.92
2023-04-09T07:26:59.089Z,99568.28
2023-04-09T07:30:13.320Z,99571.50
2023-04-09T07:33:25.266Z,99559.85
2023-04-09T07:36:38.956Z,99556.27
2023-04-09T07:39:51.447Z,99555.27
2023-04-09T07:43:03.558Z,99551.78
2023-04-09T07:46:15.628Z,99558.64
2023-04-09T07:49:27.701Z,99563.80
2023-04-09T07:52:39.969Z,99561.45
2023-04-09T07:55:52.058Z,99553.09
2023-04-09T07:59:05.243Z,99554.33
2023-04-09T08:02:18.255Z,99553.52
2023-04-09T08:05:30.911Z,99551.38
2023-04-09T08:08:42.952Z,99552.33
2023-04-09T08:11:56.045Z,99552.43
2023-04-09T08:15:08.409Z,99560.07
2023-04-09T08:18:23.579Z,99561.88
2023-04-09T08:21:36.018Z,99558.64
2023-04-09T08:24:48.170Z,99547.75
2023-04-09T08:28:00.720Z,99548.44
2023-04-09T08:31:12.925Z,99545.84
2023-04-09T08:34:25.298Z,99545.70
2023-04-09T08:37:37.705Z,99544.46
2023-04-09T08:40:50.019Z,99543.88
2023-04-09T08:44:03.158Z,99554.14
2023-04-09T08:47:17.442Z,99556.78
2023-04-09T08:50:30.089Z,99561.38
2023-04-09T08:53:43.421Z,99562.36
2023-04-09T08:56:56.496Z,99554.34
2023-04-09T09:00:09.210Z,99559.41
2023-04-09T09:03:21.652Z,99559.37
2023-04-09T09:06:36.088Z,99562.53
2023-04-09T09:18:52.504Z,99563.59
2023-04-09T09:22:04.825Z,99565.19
2023-04-09T09:25:22.490Z,99556.59
2023-04-09T09:28:40.612Z,99558.55
2023-04-09T09:31:58.266Z,99554.63
2023-04-09T09:35:13.442Z,99553.38
2023-04-09T09:38:28.272Z,99565.22
2023-04-09T09:41:41.361Z,99551.77
2023-04-09T09:44:54.085Z,99557.17
2023-04-09T09:48:06.534Z,99555.63
2023-04-09T09:51:20.202Z,99551.27
2023-04-09T09:54:36.574Z,99547.47
2023-04-09T09:57:50.964Z,99542.54
2023-04-09T10:01:04.000Z,99538.86
2023-04-09T10:07:17.309Z,99536.88
2023-04-09T10:10:30.191Z,99543.23
2023-04-09T10:13:46.980Z,99543.93
2023-04-09T10:16:59.219Z,99542.52
2023-04-09T10:29:17.428Z,99533.52
2023-04-09T10:32:30.828Z,99537.74
2023-04-09T10:38:48.080Z,99535.30
2023-04-09T10:42:02.799Z,99536.17
2023-04-09T10:45:21.390Z,99534.22
2023-04-09T10:48:38.938Z,99531.31
2023-04-09T10:54:53.393Z,99542.88
2023-04-09T10:58:13.678Z,99538.92
2023-04-09T11:01:31.279Z,99531.52
2023-04-09T11:04:52.634Z,99528.33
2023-04-09T11:08:12.427Z,99535.25
2023-04-09T11:11:24.838Z,99531.34
2023-04-09T11:14:37.206Z,99521.30
2023-04-09T11:26:50.934Z,99525.84
2023-04-09T11:51:44.915Z,99519.93
2023-04-09T12:01:04.245Z,99533.75
2023-04-09T12:04:19.024Z,99524.23
2023-04-09T12:07:38.055Z,99532.78
2023-04-09T12:10:53.363Z,99530.38
2023-04-09T12:14:09.403Z,99529.42
2023-04-09T12:17:21.659Z,99533.75
2023-04-09T12:20:42.629Z,99536.25
2023-04-09T12:23:54.713Z,99526.90
2023-04-09T12:27:06.839Z,99525.86
2023-04-09T12:30:19.741Z,99531.84
2023-04-09T12:33:32.472Z,99523.84
2023-04-09T12:36:45.934Z,99533.71
2023-04-09T12:39:58.133Z,99527.28
2023-04-09T12:43:10.344Z,99526.09
2023-04-09T12:46:23.852Z,99519.63
2023-04-09T12:49:37.725Z,99527.80
2023-04-09T12:52:50.034Z,99519.91
2023-04-09T12:56:02.342Z,99522.47
2023-04-09T12:59:14.450Z,99518.95
2023-04-09T13:02:27.565Z,99526.66
2023-04-09T13:05:39.848Z,99523.73
2023-04-09T13:08:51.884Z,99516.73
2023-04-09T13:12:03.892Z,99518.83
2023-04-09T13:15:17.526Z,99514.68
2023-04-09T13:18:29.480Z,99515.86
2023-04-09T13:21:42.100Z,99508.01
2023-04-09T13:24:54.184Z,99515.56
2023-04-09T13:28:06.237Z,99511.69
2023-04-09T13:31:19.170Z,99506.55
2023-04-09T13:34:31.436Z,99508.94
2023-04-09T13:37:43.557Z,99507.55
2023-04-09T13:40:55.932Z,99503.45
2023-04-09T13:44:08.282Z,99501.23
2023-04-09T13:47:22.111Z,99510.25
2023-04-09T13:50:34.558Z,99506.88
2023-04-09T13:53:46.699Z,99504.48
2023-04-09T13:56:59.195Z,99498.44
2023-04-09T14:03:26.220Z,99501.44
2023-04-09T14:06:38.273Z,99493.28
2023-04-09T14:09:50.962Z,99494.98
2023-04-09T14:13:04.914Z,99494.63
2023-04-09T14:16:17.387Z,99495.84
2023-04-09T14:19:29.441Z,99494.80
2023-04-09T14:22:43.192Z,99487.07
2023-04-09T14:25:55.512Z,99490.61
2023-04-09T14:29:07.802Z,99481.88
2023-04-09T14:32:20.016Z,99479.64
2023-04-09T14:35:32.487Z,99487.81
2023-04-09T14:38:44.631Z,99479.23
2023-04-09T14:41:57.430Z,99479.66
2023-04-09T14:45:10.405Z,99477.14
2023-04-09T14:48:22.768Z,99483.01
2023-04-09T14:51:35.146Z,99477.69
2023-04-09T14:54:47.290Z,99471.39
2023-04-09T14:57:59.775Z,99475.87
2023-04-09T15:01:12.565Z,99473.20
2023-04-09T15:04:24.612Z,99470.13
2023-04-09T15:07:36.963Z,99467.32
2023-04-09T15:10:49.039Z,99480.20
2023-04-09T15:14:01.460Z,99473.62
2023-04-09T15:17:13.586Z,99470.66
2023-04-09T15:20:25.604Z,99473.16
2023-04-09T15:23:37.780Z,99471.61
2023-04-09T15:26:49.918Z,99467.28
2023-04-09T15:30:01.897Z,99474.00
2023-04-09T15:33:14.111Z,99471.28
2023-04-09T15:42:27.477Z,99476.59
2023-04-09T15:48:40.867Z,99478.53
2023-04-09T15:51:54.701Z,99468.19
2023-04-09T16:29:37.817Z,99480.38
2023-04-09T16:32:50.944Z,99482.59
2023-04-09T16:39:04.549Z,99484.22
2023-04-09T16:48:32.577Z,99488.05
2023-04-09T17:00:47.173Z,99503.33
2023-04-09T17:10:00.596Z,99506.20
2023-04-09T17:39:56.180Z,99524.45
2023-04-09T17:46:09.197Z,99531.34
2023-04-09T17:49:22.577Z,99536.91
2023-04-09T17:55:36.246Z,99545.73
2023-04-09T17:58:55.156Z,99549.47
2023-04-09T18:02:11.592Z,99554.69
2023-04-09T18:05:26.226Z,99543.80
2023-04-09T18:08:38.984Z,99557.08
2023-04-09T18:11:53.709Z,99558.88
2023-04-09T18:15:06.519Z,99562.52
2023-04-09T18:18:19.097Z,99561.08
2023-04-09T18:21:31.483Z,99569.99
2023-04-09T18:24:43.880Z,99574.12
2023-04-09T18:27:56.596Z,99574.38
2023-04-09T18:31:11.326Z,99579.05
2023-04-09T19:16:09.374Z,99599.64
2023-04-09T19:19:21.978Z,99601.31
2023-04-09T19:22:33.986Z,99596.73
2023-04-09T19:25:46.101Z,99603.75
2023-04-09T19:28:58.309Z,99603.88
2023-04-09T19:32:12.946Z,99605.67
2023-04-09T19:35:25.226Z,99612.66
2023-04-09T19:38:37.652Z,99612.31
2023-04-09T19:41:50.512Z,99611.92
2023-04-09T19:45:02.746Z,99609.13
2023-04-09T19:48:15.004Z,99613.83
2023-04-09T19:51:27.572Z,99609.94
2023-04-09T19:54:39.942Z,99616.16
2023-04-09T19:57:52.226Z,99608.94
2023-04-09T20:01:04.414Z,99615.95
2023-04-09T20:04:16.662Z,99620.00
2023-04-09T20:07:28.891Z,99625.55
2023-04-09T20:10:46.368Z,99627.59
2023-04-09T20:13:58.826Z,99623.48
2023-04-09T20:17:11.632Z,99616.07
2023-04-09T20:20:24.082Z,99622.67
2023-04-09T20:23:36.390Z,99624.92
2023-04-09T20:26:48.486Z,99626.22
2023-04-09T20:30:02.073Z,99627.32
2023-04-09T20:33:14.124Z,99625.48
2023-04-09T20:36:26.745Z,99626.34
2023-04-09T20:39:38.953Z,99631.23
2023-04-09T20:42:52.794Z,99617.91
2023-04-09T20:46:05.481Z,99620.64
2023-04-09T20:49:19.078Z,99618.35
2023-04-09T20:52:32.628Z,99619.98
2023-04-09T20:55:44.624Z,99623.27
2023-04-09T20:58:57.608Z,99619.59
2023-04-09T21:02:09.869Z,99610.17
2023-04-09T21:05:23.850Z,99618.35
2023-04-09T21:08:36.914Z,99626.17
2023-04-09T21:11:49.162Z,99619.52
2023-04-09T21:15:01.701Z,99618.25
2023-04-09T21:18:14.242Z,99621.44
2023-04-09T21:21:27.642Z,99615.47
2023-04-09T21:24:39.421Z,99626.30
2023-04-09T21:27:51.887Z,99624.58
2023-04-09T21:31:04.044Z,99624.08
2023-04-09T21:34:16.224Z,99626.73
2023-04-09T21:37:29.190Z,99628.41
2023-04-09T21:40:41.310Z,99629.58
2023-04-09T21:43:53.362Z,99633.08
2023-04-09T21:47:07.796Z,99632.66
2023-04-09T21:50:20.709Z,99631.84
2023-04-09T21:53:34.659Z,99640.75
2023-04-09T21:56:46.758Z,99639.04
2023-04-09T21:59:58.815Z,99638.61
2023-04-09T22:03:11.342Z,99642.42
2023-04-09T22:06:24.094Z,99638.92
2023-04-09T22:09:36.682Z,99639.04
2023-04-09T22:12:48.713Z,99642.81
2023-04-09T22:16:01.421Z,99640.83
2023-04-09T22:19:14.452Z,99643.67
2023-04-09T22:22:26.503Z,99635.22
2023-04-09T22:25:39.072Z,99630.98
2023-04-09T22:28:51.168Z,99635.64
2023-04-09T22:32:04.017Z,99637.31
2023-04-09T22:35:18.533Z,99642.83
2023-04-09T22:38:30.680Z,99635.20
2023-04-09T22:41:42.816Z,99628.45
2023-04-09T22:44:54.798Z,99641.44
2023-04-09T22:48:07.535Z,99636.70
2023-04-09T22:51:20.464Z,99631.60
2023-04-09T22:54:33.191Z,99633.51
2023-04-09T22:57:45.268Z,99635.83
2023-04-09T23:00:57.650Z,99633.61
2023-04-09T23:04:10.023Z,99636.89
2023-04-09T23:07:22.279Z,99634.78
2023-04-09T23:10:34.232Z,99640.37
2023-04-09T23:13:46.773Z,99633.81
2023-04-09T23:16:58.749Z,99633.26
2023-04-09T23:20:15.249Z,99641.41
2023-04-09T23:23:27.389Z,99643.80
2023-04-09T23:26:40.178Z,99646.66
2023-04-09T23:29:52.306Z,99644.53
2023-04-09T23:33:04.377Z,99648.10
2023-04-09T23:36:17.198Z,99646.42
2023-04-09T23:39:29.344Z,99638.50
2023-04-09T23:42:41.472Z,99633.39
2023-04-09T23:45:53.724Z,99627.30
2023-04-09T23:49:05.785Z,99628.33
2023-04-09T23:52:17.740Z,99623.45
2023-04-09T23:55:30.053Z,99624.49
2023-04-09T23:58:42.264Z,99623.00
